createdAt,value
2022-10-19T00:01:08.799Z,14.00
2022-10-19T00:03:36.641Z,14.00
2022-10-19T00:06:26.764Z,13.90
2022-10-19T00:08:55.903Z,14.00
2022-10-19T00:13:51.703Z,14.00
2022-10-19T00:16:19.098Z,13.90
2022-10-19T00:18:46.587Z,13.90
2022-10-19T00:21:16.651Z,13.80
2022-10-19T00:31:08.667Z,13.70
2022-10-19T00:36:04.430Z,13.60
2022-10-19T00:43:30.683Z,13.50
2022-10-19T00:48:33.065Z,13.20
2022-10-19T00:53:30.485Z,13.30
2022-10-19T01:13:24.131Z,13.20
2022-10-19T01:16:11.930Z,12.80
2022-10-19T01:19:05.916Z,13.00
2022-10-19T01:21:46.018Z,12.90
2022-10-19T01:24:39.893Z,12.90
2022-10-19T01:27:26.378Z,13.10
2022-10-19T01:30:37.485Z,13.00
2022-10-19T01:33:10.441Z,13.00
2022-10-19T01:38:22.785Z,13.10
2022-10-19T01:41:11.547Z,13.00
2022-10-19T01:44:07.540Z,13.20
2022-10-19T01:46:39.167Z,12.90
2022-10-19T01:49:13.425Z,12.70
2022-10-19T01:51:45.761Z,13.20
2022-10-19T01:54:15.451Z,12.60
2022-10-19T01:56:45.844Z,12.80
2022-10-19T01:59:14.071Z,12.90
2022-10-19T02:01:45.306Z,13.10
2022-10-19T02:04:15.941Z,12.80
2022-10-19T02:06:43.365Z,13.00
2022-10-19T02:11:38.062Z,13.00
2022-10-19T02:14:10.880Z,13.00
2022-10-19T02:16:43.780Z,12.90
2022-10-19T02:19:14.800Z,13.30
2022-10-19T02:21:41.827Z,13.10
2022-10-19T02:41:29.584Z,12.70
2022-10-19T02:44:05.115Z,12.80
2022-10-19T02:46:54.790Z,12.80
2022-10-19T02:52:01.093Z,12.70
2022-10-19T03:04:17.506Z,12.60
2022-10-19T03:14:06.163Z,12.70
2022-10-19T03:26:21.979Z,12.10
2022-10-19T03:36:24.264Z,12.30
2022-10-19T03:38:56.334Z,12.30
2022-10-19T03:41:27.385Z,12.20
2022-10-19T03:46:22.468Z,12.20
2022-10-19T03:51:23.138Z,12.20
2022-10-19T03:53:54.698Z,12.20
2022-10-19T03:56:23.637Z,12.20
2022-10-19T03:58:51.701Z,12.20
2022-10-19T04:01:40.577Z,12.20
2022-10-19T04:04:13.504Z,12.20
2022-10-19T04:06:42.602Z,12.20
2022-10-19T04:09:12.374Z,12.20
2022-10-19T04:14:06.932Z,11.90
2022-10-19T04:21:37.232Z,12.20
2022-10-19T04:24:05.615Z,11.90
2022-10-19T04:26:34.410Z,12.20
2022-10-19T04:29:01.842Z,12.20
2022-10-19T04:31:29.369Z,12.20
2022-10-19T04:33:57.061Z,11.90
2022-10-19T04:41:20.487Z,12.20
2022-10-19T04:43:48.664Z,12.20
2022-10-19T04:46:17.845Z,12.20
2022-10-19T04:48:45.708Z,12.20
2022-10-19T04:51:12.788Z,12.30
2022-10-19T04:53:41.230Z,12.30
2022-10-19T04:56:12.381Z,11.90
2022-10-19T04:58:39.493Z,12.10
2022-10-19T05:01:15.632Z,12.10
2022-10-19T05:03:42.468Z,12.00
2022-10-19T05:06:10.635Z,11.90
2022-10-19T05:08:38.444Z,11.80
2022-10-19T05:11:11.461Z,12.10
2022-10-19T05:13:38.705Z,12.10
2022-10-19T05:16:07.523Z,12.20
2022-10-19T05:18:36.243Z,12.20
2022-10-19T05:21:05.588Z,12.20
2022-10-19T05:26:17.722Z,12.20
2022-10-19T05:28:56.552Z,12.10
2022-10-19T05:31:26.200Z,12.00
2022-10-19T05:33:53.124Z,12.20
2022-10-19T05:36:25.406Z,12.60
2022-10-19T05:38:53.343Z,12.10
2022-10-19T05:43:53.931Z,12.10
2022-10-19T05:51:18.317Z,12.10
2022-10-19T05:53:45.659Z,11.90
2022-10-19T05:56:18.907Z,12.10
2022-10-19T05:58:46.456Z,11.90
2022-10-19T06:01:14.271Z,11.90
2022-10-19T06:03:42.591Z,12.10
2022-10-19T06:06:09.938Z,12.00
2022-10-19T06:08:37.793Z,12.30
2022-10-19T06:11:07.646Z,12.10
2022-10-19T06:13:34.866Z,12.20
2022-10-19T06:16:02.271Z,12.00
2022-10-19T06:33:12.568Z,11.60
2022-10-19T06:38:10.039Z,11.90
2022-10-19T06:43:04.051Z,12.20
2022-10-19T06:50:35.451Z,11.80
2022-10-19T06:53:02.269Z,11.60
2022-10-19T07:02:50.699Z,11.50
2022-10-19T07:05:17.565Z,11.80
2022-10-19T07:10:12.925Z,11.70
2022-10-19T07:15:07.535Z,11.50
2022-10-19T07:24:56.636Z,12.00
2022-10-19T07:27:23.415Z,11.70
2022-10-19T07:29:50.558Z,12.00
2022-10-19T07:32:17.327Z,12.10
2022-10-19T07:34:44.375Z,11.80
2022-10-19T07:39:38.508Z,11.90
2022-10-19T07:44:32.705Z,12.00
2022-10-19T08:04:49.137Z,11.80
2022-10-19T08:12:15.801Z,12.00
2022-10-19T08:17:11.932Z,12.00
2022-10-19T08:19:43.392Z,12.40
2022-10-19T08:22:11.205Z,12.20
2022-10-19T08:24:38.380Z,12.20
2022-10-19T08:27:05.217Z,12.20
2022-10-19T08:29:32.207Z,12.60
2022-10-19T08:41:50.977Z,12.60
2022-10-19T08:44:45.428Z,12.50
2022-10-19T08:47:53.837Z,12.70
2022-10-19T08:50:25.582Z,12.80
2022-10-19T08:53:02.342Z,12.80
2022-10-19T08:56:15.029Z,12.90
2022-10-19T08:59:06.500Z,13.30
2022-10-19T09:01:56.887Z,13.10
2022-10-19T09:04:45.008Z,13.20
2022-10-19T09:07:26.183Z,13.20
2022-10-19T09:10:19.159Z,13.30
2022-10-19T09:12:58.710Z,13.30
2022-10-19T09:15:32.617Z,13.30
2022-10-19T09:18:00.638Z,13.40
2022-10-19T09:20:37.310Z,13.70
2022-10-19T09:23:09.786Z,14.00
2022-10-19T09:25:39.740Z,14.20
2022-10-19T09:28:39.791Z,14.20
2022-10-19T09:31:14.926Z,14.20
2022-10-19T09:33:43.229Z,14.20
2022-10-19T09:41:23.512Z,14.60
2022-10-19T09:43:54.486Z,14.60
2022-10-19T09:46:51.922Z,14.60
2022-10-19T09:49:19.911Z,14.70
2022-10-19T09:51:52.168Z,14.60
2022-10-19T09:54:37.858Z,14.90
2022-10-19T09:57:05.720Z,14.90
2022-10-19T09:59:36.909Z,15.10
2022-10-19T10:02:06.801Z,15.10
2022-10-19T10:07:04.159Z,15.30
2022-10-19T10:09:31.677Z,15.50
2022-10-19T10:12:02.812Z,15.60
2022-10-19T10:14:36.904Z,15.50
2022-10-19T10:17:07.490Z,15.90
2022-10-19T10:19:38.077Z,16.00
2022-10-19T10:22:05.025Z,16.40
2022-10-19T10:24:33.642Z,16.10
2022-10-19T10:27:03.586Z,16.30
2022-10-19T10:29:32.835Z,16.30
2022-10-19T10:32:01.868Z,16.40
2022-10-19T10:34:59.949Z,16.60
2022-10-19T10:37:40.463Z,16.70
2022-10-19T10:40:23.743Z,16.70
2022-10-19T10:42:52.611Z,16.50
2022-10-19T10:45:29.243Z,16.50
2022-10-19T10:47:57.684Z,16.60
2022-10-19T10:50:31.534Z,16.60
2022-10-19T10:53:01.120Z,16.60
2022-10-19T10:58:07.609Z,16.50
2022-10-19T11:03:11.179Z,16.50
2022-10-19T11:05:48.134Z,16.50
2022-10-19T11:08:36.655Z,16.50
2022-10-19T11:11:28.260Z,16.50
2022-10-19T11:14:15.804Z,16.30
2022-10-19T11:16:45.179Z,16.50
2022-10-19T11:22:17.913Z,16.60
2022-10-19T11:28:00.290Z,16.20
2022-10-19T11:30:29.379Z,16.40
2022-10-19T11:33:06.348Z,16.40
2022-10-19T11:35:53.044Z,16.30
2022-10-19T11:38:37.345Z,16.50
2022-10-19T11:41:29.767Z,16.30
2022-10-19T11:44:14.710Z,16.50
2022-10-19T11:47:03.994Z,16.80
2022-10-19T11:52:22.647Z,16.60
2022-10-19T11:55:10.909Z,16.90
2022-10-19T12:00:15.331Z,16.70
2022-10-19T12:03:09.192Z,16.60
2022-10-19T12:06:00.535Z,16.50
2022-10-19T12:08:59.776Z,16.10
2022-10-19T12:14:02.884Z,16.10
2022-10-19T12:16:44.241Z,16.30
2022-10-19T12:19:24.955Z,16.00
2022-10-19T12:21:55.176Z,16.20
2022-10-19T12:24:25.312Z,16.20
2022-10-19T12:26:54.777Z,16.20
2022-10-19T12:29:34.359Z,16.20
2022-10-19T12:32:04.793Z,16.20
2022-10-19T12:39:41.475Z,16.40
2022-10-19T12:42:29.582Z,16.30
2022-10-19T12:45:03.245Z,16.10
2022-10-19T12:49:58.770Z,16.20
2022-10-19T12:52:48.170Z,16.20
2022-10-19T12:55:18.018Z,16.10
2022-10-19T12:57:48.330Z,16.30
2022-10-19T13:00:28.862Z,16.30
2022-10-19T13:03:04.785Z,16.30
2022-10-19T13:05:33.282Z,16.30
2022-10-19T13:08:08.120Z,16.30
2022-10-19T13:15:38.192Z,16.20
2022-10-19T13:18:23.926Z,16.40
2022-10-19T13:20:53.724Z,16.40
2022-10-19T13:23:26.555Z,16.30
2022-10-19T13:26:32.932Z,16.40
2022-10-19T13:29:00.848Z,16.30
2022-10-19T13:31:31.064Z,16.30
2022-10-19T13:36:26.439Z,16.50
2022-10-19T13:38:58.978Z,16.60
2022-10-19T13:41:46.792Z,16.20
2022-10-19T13:47:22.125Z,16.50
2022-10-19T13:50:00.486Z,16.50
2022-10-19T13:52:51.093Z,16.30
2022-10-19T13:55:47.325Z,16.20
2022-10-19T13:58:32.332Z,16.30
2022-10-19T14:01:04.938Z,16.30
2022-10-19T14:04:13.854Z,16.60
2022-10-19T14:07:02.521Z,16.60
2022-10-19T14:09:54.693Z,16.60
2022-10-19T14:17:24.328Z,16.50
2022-10-19T14:19:57.159Z,16.50
2022-10-19T14:22:29.789Z,16.50
2022-10-19T14:25:21.288Z,16.70
2022-10-19T14:27:54.385Z,16.50
2022-10-19T14:35:27.433Z,16.70
2022-10-19T14:42:57.006Z,16.30
2022-10-19T14:45:29.740Z,16.40
2022-10-19T14:50:39.559Z,16.30
2022-10-19T14:53:30.329Z,16.30
2022-10-19T14:56:01.727Z,16.30
2022-10-19T14:58:36.461Z,16.30
2022-10-19T15:06:04.937Z,16.20
2022-10-19T15:08:42.650Z,16.40
2022-10-19T15:11:26.767Z,16.00
2022-10-19T15:14:00.308Z,15.80
2022-10-19T15:16:55.001Z,16.00
2022-10-19T15:19:37.703Z,16.00
2022-10-19T15:22:32.062Z,15.90
2022-10-19T15:27:38.613Z,15.60
2022-10-19T15:32:36.494Z,15.80
2022-10-19T15:35:20.106Z,15.70
2022-10-19T15:37:49.268Z,15.70
2022-10-19T15:40:37.857Z,15.70
2022-10-19T15:43:45.557Z,15.60
2022-10-19T15:46:25.843Z,15.50
2022-10-19T15:49:15.644Z,15.50
2022-10-19T15:51:45.037Z,15.40
2022-10-19T15:56:40.399Z,15.20
2022-10-19T15:59:12.745Z,15.20
2022-10-19T16:06:36.493Z,14.90
2022-10-19T16:09:04.023Z,15.00
2022-10-19T16:11:32.379Z,14.90
2022-10-19T16:16:32.360Z,14.70
2022-10-19T16:19:00.216Z,14.60
2022-10-19T16:21:33.258Z,14.50
2022-10-19T16:28:55.876Z,14.20
2022-10-19T16:31:23.776Z,14.10
2022-10-19T16:33:51.362Z,14.10
2022-10-19T16:51:08.597Z,13.50
2022-10-19T16:53:36.711Z,13.30
2022-10-19T16:56:09.041Z,13.50
2022-10-19T16:58:37.250Z,13.30
2022-10-19T17:01:13.631Z,13.10
2022-10-19T17:06:09.093Z,13.40
2022-10-19T17:08:53.023Z,13.00
2022-10-19T17:11:26.661Z,13.00
2022-10-19T17:13:55.821Z,12.90
2022-10-19T17:16:23.859Z,12.90
2022-10-19T17:18:53.416Z,12.50
2022-10-19T17:21:22.785Z,12.70
2022-10-19T17:23:54.749Z,12.60
2022-10-19T17:26:40.124Z,12.80
2022-10-19T17:29:07.778Z,12.60
2022-10-19T17:31:36.137Z,12.60
2022-10-19T17:34:04.112Z,12.30
2022-10-19T17:36:34.088Z,12.50
2022-10-19T17:39:03.968Z,12.20
2022-10-19T17:46:31.879Z,12.40
2022-10-19T17:48:59.267Z,12.40
2022-10-19T17:51:29.328Z,12.40
2022-10-19T17:53:59.211Z,12.30
2022-10-19T18:01:22.156Z,12.00
2022-10-19T18:03:49.856Z,11.90
2022-10-19T18:06:24.142Z,12.10
2022-10-19T18:08:56.107Z,11.90
2022-10-19T18:13:51.950Z,11.90
2022-10-19T18:16:25.560Z,11.90
2022-10-19T18:18:55.020Z,11.80
2022-10-19T18:21:25.334Z,12.00
2022-10-19T18:23:53.701Z,11.50
2022-10-19T18:26:23.332Z,11.50
2022-10-19T18:28:52.513Z,11.50
2022-10-19T18:31:23.875Z,11.70
2022-10-19T18:33:56.556Z,11.50
2022-10-19T18:38:52.701Z,11.60
2022-10-19T18:41:20.212Z,11.70
2022-10-19T18:43:55.779Z,11.50
2022-10-19T18:46:25.274Z,11.50
2022-10-19T18:48:52.477Z,11.40
2022-10-19T18:51:20.662Z,11.60
2022-10-19T18:53:48.035Z,11.50
2022-10-19T18:56:17.370Z,11.50
2022-10-19T18:58:44.711Z,11.40
2022-10-19T19:01:14.691Z,11.40
2022-10-19T19:03:45.637Z,11.40
2022-10-19T19:06:21.025Z,11.20
2022-10-19T19:08:48.264Z,11.40
2022-10-19T19:11:18.425Z,11.40
2022-10-19T19:13:56.084Z,11.30
2022-10-19T19:18:51.083Z,11.10
2022-10-19T19:21:20.888Z,11.20
2022-10-19T19:23:48.890Z,11.20
2022-10-19T19:26:16.398Z,10.80
2022-10-19T19:28:46.299Z,11.00
2022-10-19T19:33:46.401Z,11.00
2022-10-19T19:36:15.074Z,11.10
2022-10-19T19:38:42.232Z,11.10
2022-10-19T19:41:11.820Z,10.90
2022-10-19T19:43:39.509Z,11.00
2022-10-19T19:46:16.569Z,10.50
2022-10-19T19:48:45.939Z,10.50
2022-10-19T19:51:18.648Z,10.60
2022-10-19T19:53:46.492Z,10.70
2022-10-19T19:56:15.365Z,10.50
2022-10-19T19:58:43.196Z,10.30
2022-10-19T20:01:18.799Z,10.50
2022-10-19T20:03:46.585Z,10.80
2022-10-19T20:06:14.974Z,10.50
2022-10-19T20:11:12.447Z,10.50
2022-10-19T20:13:40.097Z,10.40
2022-10-19T20:16:08.951Z,10.50
2022-10-19T20:18:35.858Z,10.90
2022-10-19T20:28:26.105Z,10.20
2022-10-19T20:31:19.809Z,9.90
2022-10-19T20:33:47.916Z,10.00
2022-10-19T20:36:22.969Z,9.70
2022-10-19T20:38:57.000Z,9.70
2022-10-19T20:41:26.013Z,9.70
2022-10-19T20:43:53.833Z,9.60
2022-10-19T20:46:26.204Z,9.60
2022-10-19T20:51:26.010Z,9.70
2022-10-19T20:53:57.096Z,9.70
2022-10-19T20:56:29.184Z,9.70
2022-10-19T21:01:35.091Z,9.70
2022-10-19T21:04:04.733Z,9.70
2022-10-19T21:06:33.710Z,9.70
2022-10-19T21:11:31.315Z,9.50
2022-10-19T21:14:00.564Z,9.70
2022-10-19T21:16:29.921Z,9.70
2022-10-19T21:18:57.211Z,9.60
2022-10-19T21:21:29.648Z,9.80
2022-10-19T21:24:01.873Z,9.60
2022-10-19T21:26:29.081Z,9.60
2022-10-19T21:31:25.105Z,9.40
2022-10-19T21:36:21.185Z,9.50
2022-10-19T21:41:20.977Z,9.50
2022-10-19T21:46:19.797Z,9.50
2022-10-19T21:51:27.479Z,9.50
2022-10-19T21:58:53.612Z,9.50
2022-10-19T22:01:23.046Z,9.40
2022-10-19T22:08:46.216Z,9.40
2022-10-19T22:11:14.672Z,9.30
2022-10-19T22:13:42.365Z,9.40
2022-10-19T22:16:12.495Z,9.40
2022-10-19T22:21:09.472Z,9.30
2022-10-19T22:23:36.253Z,9.20
2022-10-19T22:30:58.926Z,9.30
2022-10-19T22:33:26.163Z,9.20
2022-10-19T22:35:58.666Z,9.20
2022-10-19T22:38:26.887Z,9.20
2022-10-19T22:43:20.921Z,9.20
2022-10-19T22:45:50.905Z,9.10
2022-10-19T22:48:18.920Z,9.10
2022-10-19T22:53:13.832Z,9.10
2022-10-19T22:58:09.069Z,9.00
2022-10-19T23:00:36.571Z,9.00
2022-10-19T23:12:54.039Z,9.00
2022-10-19T23:15:21.599Z,9.00
